Delray Beach, FL

9:22 PM EDT on September 02, 2015 (GMT -0400)
RAWS | | Change Station
CLOSE
Current Station
Personal Weather Station
Location: Delray Beach, FL
Elevation: 17 ft
Nearby Weather Stations

Elev 17 ft 26.50 °N, 80.22 °W | Updated 50 minutes ago

Clear
Clear
85.0 °F
Feels Like 96 °F
N
7.0
Wind Variable Wind from ESE
Gusts 12.0 mph

Today
High -- | Low -- °F
--% Chance of Precip.
Yesterday
High -- | Low -- °F
Precip. -- in
7:00 AM 7:39 PM
Waning Gibbous, 75% visible
Pressure 30.01 in
Visibility 10.0 miles
Clouds Clear
Heat Index 96 °F
Dew Point 77.0 °F
Humidity 77%
Rainfall in
Snow Depth Not available.
UV 0 out of 12
Pollen 4.70 out of 12
Air Quality Not available.
Flu Activity Not available.
METAR KPMP 030053Z 12006KT 10SM CLR 30/24 A3001 RMK AO2 SLP162 T03000244
Pressure 30.01 in
Visibility 10.0 miles
Clouds Clear
Heat Index 96 °F
Dew Point 77.0 °F
Humidity 77%
Rainfall in
Snow Depth Not available.
UV 0 out of 12
Pollen 4.70 out of 12
Air Quality Not available.
Flu Activity Not available.
METAR KPMP 030053Z 12006KT 10SM CLR 30/24 A3001 RMK AO2 SLP162 T03000244

10-Day Weather Forecast

×

Almanac

Astronomy

Sep. 02, 2015 Rise Set
Actual Time
Civil Twilight
Nautical Twilight
Astronomical Twilight
Moon
Length of Visible Light
Length of Day
Tomorrow will be .
, % of the Moon is Illuminated

Today's Extremes

State Highs State Lows

Community

WunderPhotos

Upload Photos

1,851,865 photos uploaded!

WunderBlogs® & News

Nearby

Air Quality

  Air Quality AQ Index Pollutant
Not available.

Snow Depth

Station Depth Elevation

Earthquake Activity

City Distance Mag. Time & Date
Minimum magnitude displayed is 2.5.

Coastal Water Temperatures

Place Temperature

Stations

Nearby Weather Stations

Station Location Temp. Windchill Dew Point Humidity Wind Precip. Elev Updated Type